Time;durP1;ratioP1;P1;durP2;ratioP2;P2;SDS_P1;SDS_P2;PMS_P1;PMS_P2;Temp;Humidity;BMP_temperature;BMP_pressure;BME280_temperature;BME280_humidity;BME280_pressure;Samples;Min_cycle;Max_cycle;Signal;HPM_P1;HPM_P2
2022/02/11 00:01:24;;;;;;;10.85;7.75;;;;;;;;;;4948432;29;20071;-50
2022/02/11 00:08:09;;;;;;;10.48;7.53;;;;;;;;;;4944836;29;20078;-50
2022/02/11 00:10:34;;;;;;;9.73;7.60;;;;;;;;;;4947722;29;20035;-50
2022/02/11 00:12:59;;;;;;;10.13;7.80;;;;;;;;;;4937673;29;20450;-50
2022/02/11 00:15:41;;;;;;;10.90;7.93;;;;;;;;;;4948133;29;20042;-50
2022/02/11 00:18:07;;;;;;;10.70;8.18;;;;;;;;;;4942607;29;20118;-50
2022/02/11 00:20:32;;;;;;;11.30;8.07;;;;;;;;;;4947769;29;20067;-50
2022/02/11 00:22:57;;;;;;;10.10;7.78;;;;;;;;;;4938722;29;20031;-50
2022/02/11 00:25:24;;;;;;;11.57;8.30;;;;;;;;;;4948343;29;20525;-50
2022/02/11 00:36:06;;;;;;;11.43;7.90;;;;;;;;;;4946259;29;20041;-50
2022/02/11 01:04:34;;;;;;;11.68;7.93;;;;;;;;;;4944385;29;20027;-50
2022/02/11 01:07:00;;;;;;;11.27;7.90;;;;;;;;;;4941090;29;20055;-50
2022/02/11 01:09:25;;;;;;;11.33;8.20;;;;;;;;;;4948049;29;20275;-50
2022/02/11 01:11:53;;;;;;;11.77;8.40;;;;;;;;;;4942548;29;20353;-50
2022/02/11 01:14:20;;;;;;;12.55;8.60;;;;;;;;;;4941803;29;20395;-50
2022/02/11 01:16:51;;;;;;;10.23;7.68;;;;;;;;;;4941880;29;20119;-50
2022/02/11 01:19:29;;;;;;;11.38;7.80;;;;;;;;;;4947585;29;20023;-51
2022/02/11 01:27:03;;;;;;;10.25;7.88;;;;;;;;;;4944218;29;20035;-50
2022/02/11 01:32:24;;;;;;;11.63;8.07;;;;;;;;;;4925759;29;20047;-49
2022/02/11 01:35:10;;;;;;;12.23;7.88;;;;;;;;;;4945942;29;20518;-50
2022/02/11 01:37:55;;;;;;;10.90;8.02;;;;;;;;;;4941677;29;20167;-50
2022/02/11 01:53:52;;;;;;;12.13;8.73;;;;;;;;;;4942795;29;20090;-51
2022/02/11 01:57:10;;;;;;;11.00;7.95;;;;;;;;;;4947301;29;20031;-50
2022/02/11 02:12:01;;;;;;;11.90;8.37;;;;;;;;;;4936967;29;20490;-50
2022/02/11 02:14:45;;;;;;;11.90;8.30;;;;;;;;;;4949702;29;20111;-50
2022/02/11 02:28:02;;;;;;;11.07;8.13;;;;;;;;;;4944610;29;20019;-50
2022/02/11 03:56:58;;;;;;;11.45;7.70;;;;;;;;;;4946820;29;20042;-50
2022/02/11 04:55:20;;;;;;;9.98;7.28;;;;;;;;;;4946590;29;20042;-49
2022/02/11 05:00:30;;;;;;;10.02;6.85;;;;;;;;;;4939428;29;20133;-51
2022/02/11 05:02:57;;;;;;;10.67;7.33;;;;;;;;;;4936930;29;20036;-51
2022/02/11 05:05:22;;;;;;;9.88;7.28;;;;;;;;;;4945427;29;20107;-49
2022/02/11 05:07:47;;;;;;;9.20;7.28;;;;;;;;;;4920430;29;20065;-50
2022/02/11 05:10:15;;;;;;;9.23;6.90;;;;;;;;;;4947046;29;20593;-51
2022/02/11 05:12:42;;;;;;;9.57;6.70;;;;;;;;;;4939363;29;20354;-51
2022/02/11 05:15:09;;;;;;;9.32;7.40;;;;;;;;;;4945402;29;20038;-50
2022/02/11 05:17:43;;;;;;;9.15;7.03;;;;;;;;;;4944302;28;20035;-50
2022/02/11 05:20:09;;;;;;;10.50;7.38;;;;;;;;;;4951174;29;20031;-51
2022/02/11 05:22:34;;;;;;;8.90;6.82;;;;;;;;;;4943735;29;20043;-51
2022/02/11 05:24:59;;;;;;;10.30;7.20;;;;;;;;;;4948706;29;20027;-50
2022/02/11 05:27:25;;;;;;;10.73;7.32;;;;;;;;;;4945180;29;20567;-50
2022/02/11 05:29:50;;;;;;;8.63;6.63;;;;;;;;;;4950190;29;20418;-51
2022/02/11 05:32:15;;;;;;;10.43;7.40;;;;;;;;;;4946091;29;20059;-51
2022/02/11 05:34:40;;;;;;;11.10;7.57;;;;;;;;;;4945820;29;20027;-51
2022/02/11 05:37:06;;;;;;;10.93;7.00;;;;;;;;;;4945067;29;21109;-51
2022/02/11 05:39:31;;;;;;;9.57;7.27;;;;;;;;;;4951049;29;20418;-50
2022/02/11 05:41:56;;;;;;;8.80;6.80;;;;;;;;;;4948424;29;20408;-50
2022/02/11 05:44:21;;;;;;;8.60;6.70;;;;;;;;;;4942641;29;20270;-50
2022/02/11 05:46:46;;;;;;;9.47;7.10;;;;;;;;;;4945630;29;20295;-50
2022/02/11 05:49:12;;;;;;;9.80;7.23;;;;;;;;;;4950078;29;20354;-50
2022/02/11 05:51:37;;;;;;;9.20;7.30;;;;;;;;;;4949030;29;20302;-51
2022/02/11 05:54:02;;;;;;;9.40;6.87;;;;;;;;;;4941673;29;20111;-50
2022/02/11 05:56:27;;;;;;;10.83;7.00;;;;;;;;;;4947963;29;20114;-50
2022/02/11 05:58:53;;;;;;;9.47;7.20;;;;;;;;;;4946960;29;20766;-50
2022/02/11 06:01:18;;;;;;;10.30;7.40;;;;;;;;;;4942039;29;20505;-50
2022/02/11 06:03:43;;;;;;;9.67;7.67;;;;;;;;;;4942468;29;20019;-51
2022/02/11 06:06:08;;;;;;;8.53;7.20;;;;;;;;;;4948294;29;20525;-50
2022/02/11 06:08:33;;;;;;;10.97;6.53;;;;;;;;;;4945737;29;20622;-51
2022/02/11 06:10:59;;;;;;;9.20;7.47;;;;;;;;;;4936979;29;20346;-50
2022/02/11 06:13:24;;;;;;;12.10;7.53;;;;;;;;;;4939429;29;20022;-50
2022/02/11 06:15:49;;;;;;;9.50;7.13;;;;;;;;;;4947436;29;20656;-50
2022/02/11 06:18:14;;;;;;;9.75;7.45;;;;;;;;;;4943674;29;20027;-50
2022/02/11 06:20:40;;;;;;;9.83;6.87;;;;;;;;;;4949316;29;20049;-50
2022/02/11 06:23:05;;;;;;;9.93;7.17;;;;;;;;;;4939983;29;20035;-51
2022/02/11 06:25:30;;;;;;;9.63;7.00;;;;;;;;;;4917052;29;20031;-55
2022/02/11 06:27:56;;;;;;;9.88;7.20;;;;;;;;;;4942859;28;20027;-50
2022/02/11 06:30:21;;;;;;;10.35;7.20;;;;;;;;;;4949725;29;20050;-50
2022/02/11 06:32:47;;;;;;;8.68;6.53;;;;;;;;;;4943726;29;20438;-51
2022/02/11 06:35:12;;;;;;;8.98;6.35;;;;;;;;;;4948637;29;20084;-50
2022/02/11 06:37:48;;;;;;;9.30;6.50;;;;;;;;;;4932464;29;20094;-51
2022/02/11 06:40:14;;;;;;;9.77;6.25;;;;;;;;;;4950006;29;20098;-51
2022/02/11 06:42:39;;;;;;;9.82;6.30;;;;;;;;;;4944432;29;20035;-51
2022/02/11 06:45:05;;;;;;;9.75;6.78;;;;;;;;;;4948159;29;20070;-50
2022/02/11 06:47:30;;;;;;;9.25;6.50;;;;;;;;;;4943477;29;20066;-55
2022/02/11 06:49:55;;;;;;;9.10;6.67;;;;;;;;;;4950024;29;20062;-50
2022/02/11 06:52:21;;;;;;;8.88;6.80;;;;;;;;;;4949963;29;20023;-50
2022/02/11 06:54:46;;;;;;;8.98;6.78;;;;;;;;;;4949831;29;20039;-50
2022/02/11 06:57:12;;;;;;;9.82;6.85;;;;;;;;;;4943833;29;20023;-50
2022/02/11 06:59:37;;;;;;;10.25;6.88;;;;;;;;;;4949991;29;20135;-49
2022/02/11 07:02:02;;;;;;;9.13;6.70;;;;;;;;;;4950021;29;20526;-51
2022/02/11 07:04:28;;;;;;;9.07;6.70;;;;;;;;;;4922324;29;20267;-50
2022/02/11 07:06:53;;;;;;;8.52;6.85;;;;;;;;;;4939175;29;20074;-51
2022/02/11 07:09:19;;;;;;;8.88;6.57;;;;;;;;;;4940334;29;20027;-51
2022/02/11 07:11:44;;;;;;;9.85;6.78;;;;;;;;;;4950080;29;20027;-51
2022/02/11 07:14:11;;;;;;;10.00;6.80;;;;;;;;;;4949851;29;20031;-52
2022/02/11 07:16:36;;;;;;;10.23;7.28;;;;;;;;;;4949820;29;20102;-51
2022/02/11 07:19:01;;;;;;;9.20;6.93;;;;;;;;;;4949981;29;20696;-51
2022/02/11 07:21:27;;;;;;;10.07;6.93;;;;;;;;;;4948413;29;20134;-50
2022/02/11 07:23:52;;;;;;;9.67;7.17;;;;;;;;;;4940496;29;20529;-51
2022/02/11 07:26:18;;;;;;;8.87;7.07;;;;;;;;;;4949034;29;20279;-51
2022/02/11 07:28:43;;;;;;;9.65;6.75;;;;;;;;;;4942572;29;20272;-51
2022/02/11 07:31:09;;;;;;;9.40;6.80;;;;;;;;;;4930236;29;20513;-50
2022/02/11 07:33:34;;;;;;;9.75;7.20;;;;;;;;;;4942854;29;20374;-51
2022/02/11 07:35:59;;;;;;;9.10;6.88;;;;;;;;;;4945863;29;20761;-53
2022/02/11 07:38:25;;;;;;;9.70;6.90;;;;;;;;;;4944253;29;20629;-51
2022/02/11 07:40:50;;;;;;;9.13;7.30;;;;;;;;;;4943121;29;20430;-51
2022/02/11 07:43:15;;;;;;;8.70;6.72;;;;;;;;;;4942929;29;20508;-51
2022/02/11 07:45:41;;;;;;;9.47;7.13;;;;;;;;;;4949184;29;20553;-50
2022/02/11 07:48:07;;;;;;;9.60;6.85;;;;;;;;;;4945762;29;20290;-51
2022/02/11 07:50:32;;;;;;;10.50;7.22;;;;;;;;;;4942891;29;20035;-51
2022/02/11 07:52:57;;;;;;;9.10;6.72;;;;;;;;;;4942820;29;20402;-51
2022/02/11 07:55:23;;;;;;;11.73;7.80;;;;;;;;;;4949284;29;20098;-51
2022/02/11 07:57:48;;;;;;;10.05;7.40;;;;;;;;;;4943913;29;20023;-51
2022/02/11 08:00:14;;;;;;;9.60;7.60;;;;;;;;;;4942696;29;20061;-51
2022/02/11 08:02:40;;;;;;;10.13;7.18;;;;;;;;;;4943057;29;20326;-51
2022/02/11 08:05:05;;;;;;;10.35;7.90;;;;;;;;;;4948931;29;20498;-52
2022/02/11 08:07:30;;;;;;;10.20;7.50;;;;;;;;;;4943358;29;20500;-51
2022/02/11 08:09:55;;;;;;;11.67;8.23;;;;;;;;;;4936537;29;20034;-51
2022/02/11 08:12:22;;;;;;;9.55;7.55;;;;;;;;;;4916100;29;20339;-50
2022/02/11 08:14:47;;;;;;;9.57;7.07;;;;;;;;;;4948470;29;20039;-51
2022/02/11 08:17:13;;;;;;;10.05;7.78;;;;;;;;;;4943746;29;20119;-50
2022/02/11 08:19:38;;;;;;;11.90;8.48;;;;;;;;;;4942388;29;20097;-51
2022/02/11 08:22:03;;;;;;;10.83;7.90;;;;;;;;;;4944488;29;20027;-49
2022/02/11 08:24:28;;;;;;;10.27;7.80;;;;;;;;;;4946463;29;20062;-50
2022/02/11 08:26:54;;;;;;;11.03;7.93;;;;;;;;;;4945870;29;20027;-50
2022/02/11 08:29:22;;;;;;;11.70;7.93;;;;;;;;;;4939784;29;20272;-50
2022/02/11 08:31:48;;;;;;;11.30;7.80;;;;;;;;;;4946849;29;20499;-51
2022/02/11 08:34:13;;;;;;;10.43;7.80;;;;;;;;;;4927704;29;20062;-50
2022/02/11 08:36:38;;;;;;;11.65;7.82;;;;;;;;;;4939079;29;20027;-51
2022/02/11 08:39:04;;;;;;;10.17;7.90;;;;;;;;;;4940322;29;20020;-50
2022/02/11 08:41:29;;;;;;;9.90;7.87;;;;;;;;;;4945827;29;20341;-50
2022/02/11 08:43:54;;;;;;;10.03;7.80;;;;;;;;;;4943261;29;20102;-51
2022/02/11 08:46:21;;;;;;;10.97;8.23;;;;;;;;;;4948039;29;20118;-51
2022/02/11 08:48:48;;;;;;;10.93;8.07;;;;;;;;;;4942984;29;20267;-51
2022/02/11 08:51:13;;;;;;;11.70;8.38;;;;;;;;;;4945152;28;20041;-51
2022/02/11 08:53:39;;;;;;;10.23;7.53;;;;;;;;;;4946073;29;20308;-51
2022/02/11 08:56:06;;;;;;;11.77;7.95;;;;;;;;;;4951454;29;20318;-50
2022/02/11 08:58:31;;;;;;;11.90;8.55;;;;;;;;;;4945841;29;20569;-51
2022/02/11 09:00:56;;;;;;;10.25;7.65;;;;;;;;;;4944768;29;20117;-51
2022/02/11 09:03:22;;;;;;;11.03;8.10;;;;;;;;;;4945088;29;20058;-52
2022/02/11 09:05:47;;;;;;;12.43;7.72;;;;;;;;;;4951089;29;20580;-51
2022/02/11 09:08:12;;;;;;;10.35;8.23;;;;;;;;;;4947439;29;20066;-51
2022/02/11 09:10:38;;;;;;;11.40;8.10;;;;;;;;;;4945910;29;20030;-50
2022/02/11 09:13:04;;;;;;;11.13;8.02;;;;;;;;;;4945738;29;20448;-51
2022/02/11 09:15:29;;;;;;;11.45;8.40;;;;;;;;;;4931953;29;20033;-51
2022/02/11 09:17:55;;;;;;;11.80;7.90;;;;;;;;;;4947174;29;20121;-52
2022/02/11 09:20:20;;;;;;;11.43;8.55;;;;;;;;;;4945700;29;20058;-51
2022/02/11 09:22:45;;;;;;;10.63;8.30;;;;;;;;;;4945357;29;20410;-50
2022/02/11 09:25:11;;;;;;;11.73;8.63;;;;;;;;;;4951289;29;20059;-50
2022/02/11 09:27:43;;;;;;;11.55;8.13;;;;;;;;;;4945802;29;20493;-51
2022/02/11 09:30:12;;;;;;;12.18;8.02;;;;;;;;;;4945080;29;20024;-51
2022/02/11 09:32:37;;;;;;;12.88;8.55;;;;;;;;;;4928099;29;20039;-51
2022/02/11 09:35:02;;;;;;;11.20;8.00;;;;;;;;;;4951926;29;20024;-51
2022/02/11 09:37:28;;;;;;;11.70;8.18;;;;;;;;;;4946312;29;20287;-52
2022/02/11 09:39:53;;;;;;;10.98;8.80;;;;;;;;;;4945180;29;20666;-50
2022/02/11 09:42:19;;;;;;;11.55;9.27;;;;;;;;;;5033013;23;20058;-61
2022/02/11 09:44:46;;;;;;;11.32;8.68;;;;;;;;;;4982190;28;20468;-61
2022/02/11 09:47:12;;;;;;;11.45;8.40;;;;;;;;;;4979820;23;20058;-50
2022/02/11 09:49:37;;;;;;;13.50;8.55;;;;;;;;;;4974463;28;20424;-50
2022/02/11 09:52:03;;;;;;;11.80;8.68;;;;;;;;;;4969238;28;20459;-51
2022/02/11 09:54:29;;;;;;;11.30;8.20;;;;;;;;;;4973450;28;20438;-53
2022/02/11 09:56:54;;;;;;;10.52;7.93;;;;;;;;;;4976359;28;20018;-52
2022/02/11 09:59:20;;;;;;;12.60;8.77;;;;;;;;;;4988422;28;20416;-49
2022/02/11 10:01:45;;;;;;;11.65;8.45;;;;;;;;;;4985784;28;20038;-54
2022/02/11 10:04:18;;;;;;;11.43;8.82;;;;;;;;;;4986070;28;20487;-54
2022/02/11 10:06:46;;;;;;;12.75;9.10;;;;;;;;;;4987164;28;20109;-54
2022/02/11 10:09:12;;;;;;;12.27;8.93;;;;;;;;;;4981734;28;20580;-53
2022/02/11 10:11:37;;;;;;;12.45;8.93;;;;;;;;;;4974836;28;20026;-55
2022/02/11 10:14:18;;;;;;;12.45;8.75;;;;;;;;;;4968053;28;20548;-54
2022/02/11 10:16:52;;;;;;;10.45;8.65;;;;;;;;;;4979948;28;20041;-62
2022/02/11 10:19:36;;;;;;;12.38;8.57;;;;;;;;;;4976856;28;20717;-61
2022/02/11 10:22:12;;;;;;;10.98;8.60;;;;;;;;;;4978501;28;20117;-61
2022/02/11 10:24:37;;;;;;;11.98;8.77;;;;;;;;;;4986633;28;20030;-63
2022/02/11 10:27:21;;;;;;;12.60;9.23;;;;;;;;;;4970762;28;20029;-61
2022/02/11 10:29:49;;;;;;;13.07;8.95;;;;;;;;;;4981692;28;20050;-59
2022/02/11 10:32:14;;;;;;;10.95;9.27;;;;;;;;;;4986438;28;20065;-60
2022/02/11 10:34:39;;;;;;;12.88;8.90;;;;;;;;;;4978517;28;20033;-61
2022/02/11 10:37:08;;;;;;;12.15;9.20;;;;;;;;;;4985842;28;20026;-61
2022/02/11 10:39:36;;;;;;;11.57;8.10;;;;;;;;;;4972485;28;20030;-61
2022/02/11 10:42:03;;;;;;;12.63;9.07;;;;;;;;;;4965776;28;20056;-61
2022/02/11 10:44:29;;;;;;;11.73;8.80;;;;;;;;;;4986410;28;20034;-60
2022/02/11 10:46:59;;;;;;;13.18;9.05;;;;;;;;;;4977038;28;20046;-62
2022/02/11 10:49:45;;;;;;;11.95;8.70;;;;;;;;;;4986378;28;20023;-60
2022/02/11 10:52:15;;;;;;;11.85;8.40;;;;;;;;;;4987052;28;20121;-61
2022/02/11 10:54:41;;;;;;;11.82;9.13;;;;;;;;;;4986950;28;20018;-60
2022/02/11 10:57:09;;;;;;;11.65;9.32;;;;;;;;;;4986552;28;20058;-62
2022/02/11 10:59:35;;;;;;;12.25;8.60;;;;;;;;;;4986664;28;20112;-61
2022/02/11 11:02:02;;;;;;;11.43;8.40;;;;;;;;;;4987987;28;20466;-63
2022/02/11 11:04:27;;;;;;;11.35;9.05;;;;;;;;;;4987623;28;20022;-63
2022/02/11 11:06:53;;;;;;;11.07;8.90;;;;;;;;;;4987804;28;20092;-62
2022/02/11 11:09:19;;;;;;;11.23;8.65;;;;;;;;;;4988168;28;20053;-63
2022/02/11 11:11:44;;;;;;;11.10;8.95;;;;;;;;;;4971605;28;20196;-60
2022/02/11 11:14:13;;;;;;;10.68;8.65;;;;;;;;;;4985508;28;20045;-59
2022/02/11 11:16:39;;;;;;;11.73;8.60;;;;;;;;;;4987392;28;20069;-62
2022/02/11 11:19:04;;;;;;;13.23;8.90;;;;;;;;;;4986208;28;20037;-62
2022/02/11 11:21:30;;;;;;;12.13;8.75;;;;;;;;;;4987581;28;20042;-61
2022/02/11 11:23:55;;;;;;;11.43;8.73;;;;;;;;;;4987639;28;20764;-62
2022/02/11 11:26:33;;;;;;;11.20;8.43;;;;;;;;;;4987258;28;20404;-61
2022/02/11 11:29:05;;;;;;;11.15;8.85;;;;;;;;;;4980508;28;20154;-60
2022/02/11 11:31:30;;;;;;;11.50;8.20;;;;;;;;;;4966237;28;20030;-58
2022/02/11 11:34:14;;;;;;;12.85;8.93;;;;;;;;;;4997453;28;20026;-60
2022/02/11 11:36:40;;;;;;;9.70;8.13;;;;;;;;;;4986070;28;20018;-62
2022/02/11 11:39:05;;;;;;;11.43;8.80;;;;;;;;;;4985525;28;20793;-63
2022/02/11 11:41:33;;;;;;;10.27;8.37;;;;;;;;;;4984393;28;20042;-61
2022/02/11 11:44:00;;;;;;;10.63;8.75;;;;;;;;;;4985890;28;20276;-61
2022/02/11 11:46:32;;;;;;;10.63;8.13;;;;;;;;;;4984315;28;20583;-61
2022/02/11 11:49:01;;;;;;;10.25;7.90;;;;;;;;;;4985819;28;20025;-58
2022/02/11 11:51:35;;;;;;;10.63;8.07;;;;;;;;;;4973834;28;20035;-59
2022/02/11 11:54:26;;;;;;;11.60;8.75;;;;;;;;;;4982066;28;20034;-59
2022/02/11 11:56:57;;;;;;;11.63;8.00;;;;;;;;;;4985271;28;20018;-60
2022/02/11 11:59:26;;;;;;;21.20;9.50;;;;;;;;;;4985340;28;20022;-61
2022/02/11 12:01:57;;;;;;;40.10;10.88;;;;;;;;;;4984872;28;20124;-60
2022/02/11 12:04:45;;;;;;;25.48;10.02;;;;;;;;;;4970895;28;20089;-60
2022/02/11 12:07:14;;;;;;;21.75;9.32;;;;;;;;;;4973722;28;20049;-63
2022/02/11 12:09:48;;;;;;;26.00;9.63;;;;;;;;;;4985500;28;20034;-61
2022/02/11 12:12:14;;;;;;;24.23;9.35;;;;;;;;;;4980976;28;20269;-62
2022/02/11 12:14:40;;;;;;;21.02;9.27;;;;;;;;;;4985318;28;20022;-62
2022/02/11 12:17:06;;;;;;;22.05;9.57;;;;;;;;;;4984896;28;20026;-61
2022/02/11 12:19:32;;;;;;;16.92;8.63;;;;;;;;;;4980817;28;20093;-59
2022/02/11 12:21:57;;;;;;;32.08;20.98;;;;;;;;;;4981061;28;20034;-56
2022/02/11 12:27:22;;;;;;;32.28;21.25;;;;;;;;;;4983818;28;20041;-59
2022/02/11 12:29:51;;;;;;;31.83;20.65;;;;;;;;;;4983897;28;20040;-56
2022/02/11 12:32:17;;;;;;;38.38;21.10;;;;;;;;;;4982524;28;20124;-61
2022/02/11 12:34:58;;;;;;;28.58;20.20;;;;;;;;;;4984868;28;20081;-60
2022/02/11 12:37:24;;;;;;;28.77;19.30;;;;;;;;;;4984500;28;20038;-62
2022/02/11 12:39:59;;;;;;;29.70;18.75;;;;;;;;;;4982542;28;20026;-55
2022/02/11 12:42:25;;;;;;;28.25;17.63;;;;;;;;;;4985220;28;20036;-60
2022/02/11 12:44:50;;;;;;;27.20;17.58;;;;;;;;;;4985799;28;20026;-60
2022/02/11 12:47:15;;;;;;;27.13;17.00;;;;;;;;;;4987221;28;20157;-61
2022/02/11 12:49:44;;;;;;;28.95;17.52;;;;;;;;;;5004016;28;20033;-61
2022/02/11 12:52:10;;;;;;;24.92;15.93;;;;;;;;;;4987563;28;20026;-58
2022/02/11 12:54:35;;;;;;;26.85;15.35;;;;;;;;;;4983366;28;20084;-62
2022/02/11 12:57:04;;;;;;;22.77;14.98;;;;;;;;;;4992914;28;20046;-61
2022/02/11 12:59:30;;;;;;;24.10;14.40;;;;;;;;;;5003778;28;20033;-61
2022/02/11 13:01:55;;;;;;;24.88;14.98;;;;;;;;;;5003848;28;20030;-59
2022/02/11 13:04:21;;;;;;;25.55;14.30;;;;;;;;;;5003860;28;20037;-60
2022/02/11 13:06:46;;;;;;;25.35;14.18;;;;;;;;;;5004645;28;20577;-58
2022/02/11 13:09:11;;;;;;;21.63;13.43;;;;;;;;;;4994262;28;20093;-61
2022/02/11 13:11:37;;;;;;;21.57;14.33;;;;;;;;;;5010458;28;20029;-60
2022/02/11 13:14:04;;;;;;;19.90;13.10;;;;;;;;;;5006976;28;20311;-57
2022/02/11 13:16:29;;;;;;;20.70;12.85;;;;;;;;;;5003577;28;20049;-62
2022/02/11 13:18:55;;;;;;;20.63;13.30;;;;;;;;;;5004122;28;20491;-61
2022/02/11 13:21:21;;;;;;;19.63;12.70;;;;;;;;;;5004008;28;20511;-62
2022/02/11 13:23:50;;;;;;;21.65;12.90;;;;;;;;;;5003278;28;20029;-57
2022/02/11 13:26:15;;;;;;;20.55;12.05;;;;;;;;;;5004079;28;20025;-59
2022/02/11 13:28:44;;;;;;;17.00;12.10;;;;;;;;;;5003850;28;20021;-63
2022/02/11 13:31:10;;;;;;;19.80;12.00;;;;;;;;;;4993634;28;20034;-62
2022/02/11 13:33:35;;;;;;;18.87;12.07;;;;;;;;;;4996615;28;20017;-61
2022/02/11 13:36:11;;;;;;;16.13;11.27;;;;;;;;;;4985837;28;20277;-61
2022/02/11 13:38:37;;;;;;;16.83;11.13;;;;;;;;;;5006138;28;20053;-60
2022/02/11 13:41:07;;;;;;;15.50;10.45;;;;;;;;;;5007283;28;20495;-59
2022/02/11 13:43:48;;;;;;;16.40;11.00;;;;;;;;;;5006009;28;20037;-62
2022/02/11 13:46:29;;;;;;;14.38;10.35;;;;;;;;;;5006531;28;20025;-60
2022/02/11 13:48:55;;;;;;;17.55;10.93;;;;;;;;;;5007408;28;20048;-62
2022/02/11 13:51:21;;;;;;;19.83;11.25;;;;;;;;;;4996366;28;20501;-61
2022/02/11 13:53:52;;;;;;;17.77;10.73;;;;;;;;;;5001156;28;20096;-57
2022/02/11 13:56:40;;;;;;;15.00;9.93;;;;;;;;;;5006922;28;20030;-61
2022/02/11 13:59:06;;;;;;;17.65;10.52;;;;;;;;;;4996482;28;20438;-55
2022/02/11 14:01:35;;;;;;;18.20;10.10;;;;;;;;;;5005861;28;20479;-59
2022/02/11 14:04:01;;;;;;;16.48;9.55;;;;;;;;;;5006766;28;20454;-60
2022/02/11 14:06:28;;;;;;;14.10;9.30;;;;;;;;;;5006790;28;20018;-60
2022/02/11 14:08:54;;;;;;;13.43;9.45;;;;;;;;;;5006594;28;20029;-63
2022/02/11 14:11:19;;;;;;;13.75;9.45;;;;;;;;;;4989442;28;20404;-59
2022/02/11 14:13:45;;;;;;;14.40;9.55;;;;;;;;;;5006591;28;20053;-61
2022/02/11 14:16:10;;;;;;;14.02;9.18;;;;;;;;;;5005220;28;20556;-61
2022/02/11 14:18:39;;;;;;;12.93;9.05;;;;;;;;;;4987100;28;20026;-61
2022/02/11 14:21:04;;;;;;;11.90;8.55;;;;;;;;;;4986855;28;20030;-60
2022/02/11 14:23:30;;;;;;;12.30;8.40;;;;;;;;;;4986390;28;20033;-56
2022/02/11 14:25:55;;;;;;;14.43;9.13;;;;;;;;;;4987180;28;20274;-61
2022/02/11 14:28:23;;;;;;;13.13;8.57;;;;;;;;;;4986787;28;20390;-61
2022/02/11 14:30:48;;;;;;;14.77;8.10;;;;;;;;;;4999118;28;20022;-59
2022/02/11 14:33:14;;;;;;;15.17;8.30;;;;;;;;;;5015730;28;20039;-59
2022/02/11 14:35:39;;;;;;;12.32;8.82;;;;;;;;;;5006402;28;20030;-61
2022/02/11 14:38:05;;;;;;;13.82;8.02;;;;;;;;;;5006263;28;20029;-63
2022/02/11 14:40:33;;;;;;;12.77;8.10;;;;;;;;;;5006157;28;20082;-59
2022/02/11 14:43:00;;;;;;;10.93;8.05;;;;;;;;;;5006129;28;20037;-62
2022/02/11 14:45:25;;;;;;;11.23;7.50;;;;;;;;;;5006387;28;20036;-58
2022/02/11 14:47:51;;;;;;;13.13;7.65;;;;;;;;;;5005251;28;20053;-57
2022/02/11 14:50:16;;;;;;;10.60;8.18;;;;;;;;;;5003014;28;20030;-57
2022/02/11 14:52:41;;;;;;;14.63;7.97;;;;;;;;;;4990199;28;20053;-57
2022/02/11 14:55:07;;;;;;;12.35;7.85;;;;;;;;;;5005108;28;20280;-56
2022/02/11 14:57:33;;;;;;;10.93;7.72;;;;;;;;;;5005718;28;20526;-56
2022/02/11 14:59:59;;;;;;;9.93;7.75;;;;;;;;;;5005669;28;20500;-56
2022/02/11 15:02:24;;;;;;;12.07;7.70;;;;;;;;;;5005842;28;20021;-57
2022/02/11 15:04:49;;;;;;;12.40;7.47;;;;;;;;;;5006102;28;20112;-58
2022/02/11 15:07:15;;;;;;;11.25;7.72;;;;;;;;;;5006933;28;20273;-56
2022/02/11 15:09:40;;;;;;;11.02;7.28;;;;;;;;;;5006965;28;20034;-54
2022/02/11 15:12:08;;;;;;;12.73;7.97;;;;;;;;;;5006425;28;20081;-58
2022/02/11 15:14:33;;;;;;;9.50;7.18;;;;;;;;;;5006653;28;20033;-57
2022/02/11 15:16:59;;;;;;;12.60;7.35;;;;;;;;;;5006890;28;20621;-57
2022/02/11 15:19:24;;;;;;;11.48;7.50;;;;;;;;;;5001838;28;20045;-61
2022/02/11 15:21:49;;;;;;;10.47;7.50;;;;;;;;;;4994475;28;20050;-62
2022/02/11 15:24:15;;;;;;;12.47;8.00;;;;;;;;;;5002528;28;20364;-60
2022/02/11 15:26:40;;;;;;;11.73;7.32;;;;;;;;;;5005196;28;20050;-59
2022/02/11 15:29:05;;;;;;;9.95;7.18;;;;;;;;;;5005312;28;20029;-57
2022/02/11 15:31:31;;;;;;;12.30;7.82;;;;;;;;;;5005202;28;20038;-60
2022/02/11 15:33:56;;;;;;;12.10;8.25;;;;;;;;;;5004964;28;20033;-57
2022/02/11 15:36:21;;;;;;;12.07;7.00;;;;;;;;;;5005247;28;20113;-62
2022/02/11 15:38:46;;;;;;;12.05;7.40;;;;;;;;;;5005724;28;20022;-56
2022/02/11 15:41:12;;;;;;;11.18;6.93;;;;;;;;;;5005783;28;20692;-62
2022/02/11 15:43:37;;;;;;;9.90;7.55;;;;;;;;;;5005801;28;20109;-61
2022/02/11 15:46:03;;;;;;;10.88;7.75;;;;;;;;;;4984779;28;20415;-60
2022/02/11 15:48:29;;;;;;;12.90;7.25;;;;;;;;;;5006325;28;20037;-63
2022/02/11 15:50:54;;;;;;;11.25;7.10;;;;;;;;;;5006855;28;20423;-63
2022/02/11 15:53:19;;;;;;;11.30;7.50;;;;;;;;;;5006739;28;20030;-61
2022/02/11 15:55:46;;;;;;;9.93;7.10;;;;;;;;;;5005649;28;20042;-58
2022/02/11 15:58:13;;;;;;;10.95;6.80;;;;;;;;;;5005704;28;20287;-62
2022/02/11 16:00:39;;;;;;;11.32;6.82;;;;;;;;;;5005779;28;20029;-64
2022/02/11 16:03:04;;;;;;;10.43;7.35;;;;;;;;;;5005609;28;20511;-62
2022/02/11 16:05:30;;;;;;;13.23;7.30;;;;;;;;;;5006001;28;20080;-63
2022/02/11 16:07:55;;;;;;;9.50;6.33;;;;;;;;;;5006149;28;20038;-63
2022/02/11 16:10:21;;;;;;;12.50;6.90;;;;;;;;;;5005981;28;20283;-62
2022/02/11 16:12:47;;;;;;;9.68;6.90;;;;;;;;;;4999271;28;20287;-62
2022/02/11 16:15:14;;;;;;;11.18;7.03;;;;;;;;;;5003551;28;20502;-63
2022/02/11 16:17:59;;;;;;;10.75;7.57;;;;;;;;;;5012447;28;20037;-63
2022/02/11 16:20:24;;;;;;;10.88;7.25;;;;;;;;;;5003065;28;20638;-61
2022/02/11 16:22:50;;;;;;;10.37;6.90;;;;;;;;;;5003380;28;20018;-61
2022/02/11 16:25:16;;;;;;;8.85;6.70;;;;;;;;;;5003291;28;20711;-64
2022/02/11 16:27:41;;;;;;;10.90;7.28;;;;;;;;;;5003094;28;20037;-63
2022/02/11 16:30:07;;;;;;;9.95;6.68;;;;;;;;;;5003400;28;20022;-63
2022/02/11 16:32:32;;;;;;;9.73;6.93;;;;;;;;;;5003294;28;20021;-63
2022/02/11 16:34:58;;;;;;;10.57;6.90;;;;;;;;;;5005706;28;20101;-62
2022/02/11 16:37:23;;;;;;;10.27;6.67;;;;;;;;;;5006434;28;20269;-64
2022/02/11 16:39:48;;;;;;;10.77;7.20;;;;;;;;;;5005937;28;20265;-61
2022/02/11 16:42:14;;;;;;;9.90;7.03;;;;;;;;;;5005672;28;20281;-63
2022/02/11 16:44:39;;;;;;;10.05;6.80;;;;;;;;;;5006055;28;20268;-61
2022/02/11 16:47:05;;;;;;;10.38;6.72;;;;;;;;;;5005502;28;20046;-60
2022/02/11 16:49:30;;;;;;;10.05;7.07;;;;;;;;;;5006026;28;20022;-62
2022/02/11 16:51:55;;;;;;;9.95;7.28;;;;;;;;;;5005902;28;20443;-62
2022/02/11 16:54:21;;;;;;;10.77;6.80;;;;;;;;;;5002597;28;20033;-62
2022/02/11 16:56:46;;;;;;;8.73;6.77;;;;;;;;;;4996057;28;20359;-61
2022/02/11 16:59:15;;;;;;;10.13;7.20;;;;;;;;;;5004745;28;20272;-62
2022/02/11 17:01:40;;;;;;;11.57;7.13;;;;;;;;;;5004227;28;20158;-63
2022/02/11 17:04:07;;;;;;;9.57;7.03;;;;;;;;;;5004385;28;20453;-61
2022/02/11 17:06:32;;;;;;;9.45;6.70;;;;;;;;;;5004508;28;20026;-62
2022/02/11 17:08:58;;;;;;;10.00;6.90;;;;;;;;;;5004988;28;20044;-63
2022/02/11 17:11:24;;;;;;;8.68;6.55;;;;;;;;;;4994142;28;20076;-63
2022/02/11 17:13:49;;;;;;;9.90;6.88;;;;;;;;;;4987689;28;20022;-62
2022/02/11 17:16:14;;;;;;;20.27;8.13;;;;;;;;;;5006917;28;20504;-60
2022/02/11 17:18:39;;;;;;;26.02;8.45;;;;;;;;;;5022804;28;20323;-61
2022/02/11 17:21:05;;;;;;;15.85;7.30;;;;;;;;;;5008074;28;20034;-60
2022/02/11 17:23:30;;;;;;;15.10;7.30;;;;;;;;;;5007642;28;20025;-61
2022/02/11 17:25:56;;;;;;;15.73;7.00;;;;;;;;;;5007136;28;20030;-61
2022/02/11 17:28:24;;;;;;;12.73;6.90;;;;;;;;;;4989834;28;20033;-61
2022/02/11 17:30:50;;;;;;;14.70;7.55;;;;;;;;;;5007858;28;20026;-63
2022/02/11 17:33:15;;;;;;;11.15;6.60;;;;;;;;;;5007313;28;20594;-60
2022/02/11 17:35:40;;;;;;;12.40;6.95;;;;;;;;;;5007389;28;20169;-62
2022/02/11 17:38:05;;;;;;;13.10;7.77;;;;;;;;;;5007716;28;20054;-59
2022/02/11 17:40:31;;;;;;;14.35;6.88;;;;;;;;;;5007043;28;20802;-61
2022/02/11 17:42:57;;;;;;;12.50;6.90;;;;;;;;;;5007284;28;20021;-61
2022/02/11 17:45:23;;;;;;;14.52;8.00;;;;;;;;;;5007619;28;20496;-60
2022/02/11 17:47:48;;;;;;;14.38;6.90;;;;;;;;;;5006541;28;20053;-60
2022/02/11 17:50:13;;;;;;;12.83;6.83;;;;;;;;;;5006786;28;20116;-62
2022/02/11 17:52:38;;;;;;;12.20;7.07;;;;;;;;;;4992037;28;20048;-61
2022/02/11 17:55:04;;;;;;;10.67;6.90;;;;;;;;;;5005687;28;20281;-62
2022/02/11 17:57:30;;;;;;;11.73;6.88;;;;;;;;;;5017943;28;20264;-61
2022/02/11 17:59:55;;;;;;;13.43;7.00;;;;;;;;;;5012655;28;20546;-61
2022/02/11 18:02:21;;;;;;;10.82;7.20;;;;;;;;;;5006786;28;20492;-62
2022/02/11 18:04:46;;;;;;;11.03;7.33;;;;;;;;;;4999771;28;20037;-62
2022/02/11 18:07:17;;;;;;;11.25;6.47;;;;;;;;;;4987107;28;20348;-60
2022/02/11 18:09:42;;;;;;;13.07;7.22;;;;;;;;;;4969841;28;20022;-59
2022/02/11 18:12:08;;;;;;;10.45;6.78;;;;;;;;;;5002923;28;20037;-59
2022/02/11 18:14:33;;;;;;;10.15;7.00;;;;;;;;;;5006733;28;20472;-60
2022/02/11 18:16:58;;;;;;;11.73;7.22;;;;;;;;;;4999092;28;20150;-56
2022/02/11 18:19:23;;;;;;;11.88;7.15;;;;;;;;;;4997473;28;20456;-62
2022/02/11 18:21:49;;;;;;;10.87;6.83;;;;;;;;;;5007018;28;20110;-61